aviador You're here:

KMRB Decoded Metar

MARTINSBURG in WV, USA
Report Time2018-02-18 20:53:00
UTC Time2018-02-18 21:43:39
Flight Rules vfr VFR
WindVRB at 03 kt
Visibility9999 m
Phenomena:N/A
Clouds:N/A
Expected CloudBase > 4,800 ft AGL from Temp-Dew spread
CeilingNone
Temp09°C (ISA -5)
Dew Point-3°C (43% RH)
AAT5.5°C
QNH1028 hPa
Density Alt-486 ft
Elevation538 ft
Report Wrong Elevation
Raw Report
KMRB 182053Z AUTO VRB03KT 10SM CLR 09/M03 A3037 RMK AO2 SLP290
T00891028 55004=

Extra information for KMRB:More info

Metar Taf Metar & Taf Last 4 Metars F.Rules Stats Wind Profile Meteogram Temp Stats Airport Information Weather charts Add Link Nearby VenuesMetar ALERT Operation Metar Decoded Social comments

AIRNAV info for KMRB